Latest Weather Observations for Williamtown

IDN60801

Issued at 8:32 pm EDT Tuesday 28 February 2017 (issued every 30 minutes, with the page automatically refreshed every 10 minutes)

About weather observations | Map of weather stations | Latest weather observations for NSW | Other Formats
Station Details ID: 061078 Name: WILLIAMTOWN RAAF Lat: -32.79 Lon: 151.84 Height: 7.5 m
Data from the previous 72 hours. | See also: Recent months at Williamtown
Date/Time
EDT
Temp
°C
App
Temp
°C
Dew
Point
°C
Rel
Hum
%
Delta-T
°C
Wind Press
QNH
hPa
Press
MSL
hPa
Rain since
9am
mm
Dir  Spd
km/h
Gust
km/h
Spd
kts
Gust
kts
28/08:30pm 22.0 21.4 19.7 87 1.5 S 22 30 12 16 1020.0 1019.9 4.0
28/08:00pm 22.3 23.4 20.4 89 1.2 SSE 15 17 8 9 1019.9 1019.8 4.0
28/07:30pm 23.6 24.2 20.3 82 2.1 SE 17 20 9 11 1019.9 1019.8 2.0
28/07:00pm 24.4 24.1 19.5 74 3.1 SE 20 26 11 14 1019.5 1019.4 2.0
28/06:30pm 25.3 25.0 19.2 69 3.9 ESE 19 26 10 14 1019.5 1019.4 2.0
28/06:00pm 25.9 24.7 19.3 67 4.2 SE 24 32 13 17 1019.3 1019.2 2.0
28/05:30pm 25.3 24.9 20.1 73 3.4 SSE 22 30 12 16 1019.4 1019.3 2.0
28/05:00pm 25.5 24.8 21.0 76 3.0 SSE 26 33 14 18 1019.5 1019.4 2.0
28/04:30pm 25.2 23.8 20.5 75 3.1 SSE 28 33 15 18 1019.4 1019.3 2.0
28/04:00pm 24.6 24.6 20.1 76 2.9 SSE 20 28 11 15 1019.7 1019.6 2.0
28/03:30pm 24.6 25.3 20.5 78 2.7 SE 17 24 9 13 1019.8 1019.7 2.0
28/03:00pm 24.7 25.5 19.8 74 3.2 ESE 15 20 8 11 1020.0 1019.9 2.0
28/02:30pm 24.3 24.7 19.1 73 3.3 ESE 15 20 8 11 1020.3 1020.2 2.0
28/02:00pm 23.8 25.5 20.9 84 1.9 SSE 13 17 7 9 1020.6 1020.5 2.0
28/01:30pm 23.0 24.8 21.1 89 1.2 SSW 13 17 7 9 1020.9 1020.8 2.0
28/01:00pm 21.9 24.0 20.9 94 0.6 S 11 17 6 9 1021.3 1021.2 2.0
28/12:30pm 20.7 22.6 19.7 94 0.6 SSE 9 13 5 7 1021.3 1021.2 1.6
28/12:00pm 20.2 20.9 18.9 92 0.8 ESE 13 19 7 10 1021.7 1021.6 0.8
28/11:48am 20.5 20.1 19.0 91 0.9 SE 19 22 10 12 1021.9 1021.8 0.8
28/11:30am 21.2 20.8 19.3 89 1.2 ESE 20 30 11 16 1022.2 1022.1 0.6
28/11:00am 23.5 24.0 19.2 77 2.7 S 15 20 8 11 1021.9 1021.8 0.0
28/10:30am 23.7 23.6 19.6 78 2.6 SSE 19 26 10 14 1022.0 1021.9 0.0
28/10:29am 23.5 23.5 19.0 76 2.9 SSE 17 26 9 14 1022.0 1021.9 0.0
28/10:00am 23.2 25.1 20.5 85 1.7 WSW 11 15 6 8 1021.9 1021.8 0.0
28/09:30am 21.7 24.7 19.3 86 1.5 WSW 2 9 1 5 1021.7 1021.6 0.0
28/09:00am 21.5 23.7 19.6 89 1.2 WSW 7 11 4 6 1021.7 1021.6 11.0
28/08:30am 20.9 23.0 20.1 95 0.5 WSW 9 11 5 6 1021.7 1021.6 11.0
28/08:11am 20.1 22.9 19.6 97 0.3 WSW 4 7 2 4 1021.7 1021.6 11.0
28/08:00am 19.8 22.8 19.3 97 0.3 WSW 2 7 1 4 1021.6 1021.5 11.0
28/07:30am 19.6 22.9 19.1 97 0.3 CALM 0 0 0 0 1021.0 1020.9 9.8
28/07:11am 19.5 22.8 19.0 97 0.3 CALM 0 0 0 0 1021.1 1021.0 9.8
28/07:00am 19.6 22.9 19.1 97 0.3 CALM 0 0 0 0 1021.0 1020.9 9.4
28/06:53am 19.6 22.9 19.1 97 0.3 CALM 0 0 0 0 1020.9 1020.8 9.2
28/06:30am 19.7 22.8 19.4 98 0.2 WSW 2 9 1 5 1020.8 1020.7 8.6
28/06:00am 19.2 21.6 18.9 98 0.2 WSW 4 9 2 5 1020.7 1020.6 8.6
28/05:47am 19.3 20.8 19.0 98 0.2 WSW 9 13 5 7 1020.5 1020.4 8.6
28/05:30am 19.0 20.7 18.5 97 0.3 ENE 7 11 4 6 1020.7 1020.6 8.6
28/05:29am 19.0 20.3 18.5 97 0.3 ENE 9 11 5 6 1020.7 1020.6 8.6
28/05:00am 18.5 20.6 18.0 97 0.3 WSW 4 9 2 5 1020.2 1020.1 8.2
28/04:30am 19.0 21.6 18.5 97 0.3 WSW 2 6 1 3 1020.2 1020.1 8.2
28/04:00am 19.1 21.7 18.4 96 0.4 WSW 2 9 1 5 1020.2 1020.1 8.2
28/03:30am 19.3 21.2 18.6 96 0.4 WSW 6 7 3 4 1020.3 1020.2 8.2
28/03:00am 19.6 22.8 18.9 96 0.4 CALM 0 0 0 0 1020.5 1020.4 8.2
28/02:30am 19.9 21.9 19.2 96 0.4 SSW 7 9 4 5 1020.7 1020.6 8.2
28/02:00am 19.4 21.4 18.7 96 0.4 WSW 6 7 3 4 1021.0 1020.9 8.2
28/01:30am 18.9 21.4 18.2 96 0.4 SW 2 7 1 4 1021.2 1021.1 8.2
28/01:00am 19.1 20.7 18.3 95 0.5 WSW 7 9 4 5 1021.4 1021.3 8.2
28/12:30am 19.1 20.6 18.1 94 0.6 SSW 7 7 4 4 1021.6 1021.5 8.2
28/12:00am 19.6 22.4 18.8 95 0.5 WSW 2 6 1 3 1021.6 1021.5 8.2
 
Date/Time
EDT
Temp
°C
App
Temp
°C
Dew
Point
°C
Rel
Hum
%
Delta-T
°C
Wind Press
QNH
hPa
Press
MSL
hPa
Rain since
9am
mm
Dir  Spd
km/h
Gust
km/h
Spd
kts
Gust
kts
27/11:30pm 19.2 20.7 18.0 93 0.7 SW 7 9 4 5 1021.8 1021.7 8.2
27/11:00pm 19.8 22.8 18.5 92 0.8 CALM 0 0 0 0 1022.0 1021.9 8.2
27/10:30pm 20.5 22.5 18.8 90 1.1 SSE 6 7 3 4 1021.9 1021.8 8.2
27/10:00pm 20.9 22.5 19.2 90 1.1 SE 9 13 5 7 1021.8 1021.7 8.2
27/09:30pm 21.1 21.3 19.4 90 1.1 SSE 17 20 9 11 1021.7 1021.6 8.2
27/09:00pm 21.7 23.2 19.8 89 1.2 ESE 11 17 6 9 1021.8 1021.7 8.2
27/08:30pm 21.9 21.8 19.6 87 1.5 SE 19 30 10 16 1021.3 1021.2 8.2
27/08:00pm 21.0 21.6 19.5 91 0.9 SSW 15 19 8 10 1021.4 1021.3 8.2
27/07:30pm 21.0 19.7 19.1 89 1.2 S 24 30 13 16 1021.0 1020.9 8.2
27/07:00pm 21.8 22.1 19.5 87 1.5 S 17 26 9 14 1020.9 1020.8 8.2
27/06:30pm 21.7 21.8 20.0 90 1.1 SSE 19 26 10 14 1020.8 1020.7 8.2
27/06:18pm 21.5 19.5 20.0 91 1.0 SSE 30 50 16 27 1020.7 1020.6 8.2
27/06:07pm 21.2 20.1 19.5 90 1.1 S 24 48 13 26 1020.4 1020.3 7.8
27/06:00pm 22.1 22.3 20.6 91 1.0 S 20 32 11 17 1020.2 1020.1 6.8
27/05:43pm 21.4 20.6 20.0 92 0.9 SSE 24 37 13 20 1020.8 1020.7 3.6
27/05:30pm 21.7 19.1 19.4 87 1.5 SSE 32 48 17 26 1020.6 1020.5 1.2
27/05:23pm 22.0 19.6 19.2 84 1.8 SSE 30 48 16 26 1020.6 1020.5 0.4
27/05:18pm 24.1 22.2 18.5 71 3.5 SSE 26 35 14 19 1020.5 1020.4 0.2
27/05:00pm 24.6 22.1 18.8 70 3.7 S 30 39 16 21 1020.6 1020.5 0.2
27/04:30pm 25.7 23.0 18.4 64 4.6 S 30 41 16 22 1020.4 1020.3 0.2
27/04:00pm 24.1 21.0 18.3 70 3.6 S 32 44 17 24 1020.9 1020.8 0.2
27/03:30pm 26.0 22.6 18.2 62 4.9 S 33 43 18 23 1020.9 1020.8 0.2
27/03:00pm 25.5 21.9 17.7 62 4.9 S 33 43 18 23 1021.0 1020.9 0.2
27/02:30pm 26.2 23.2 17.8 60 5.3 S 30 39 16 21 1021.4 1021.3 0.2
27/02:07pm 25.6 21.9 17.0 59 5.3 S 32 43 17 23 1021.7 1021.6 0.2
27/02:00pm 25.9 22.2 17.0 58 5.5 S 32 41 17 22 1021.7 1021.6 0.2
27/01:30pm 25.7 22.8 17.1 59 5.3 S 28 41 15 22 1022.0 1021.9 0.2
27/01:00pm 25.4 22.4 17.8 62 4.8 SSE 30 37 16 20 1022.5 1022.4 0.2
27/12:30pm 25.4 22.8 18.6 66 4.3 SSE 30 39 16 21 1022.5 1022.4 0.2
27/12:00pm 25.3 23.4 18.5 66 4.3 SSE 26 35 14 19 1022.6 1022.5 0.2
27/11:30am 25.2 22.2 17.7 63 4.7 SSE 30 37 16 20 1022.7 1022.6 0.2
27/11:00am 24.6 21.4 17.3 64 4.5 SSE 30 35 16 19 1022.6 1022.5 0.0
27/10:30am 24.7 21.9 18.2 67 4.1 SSE 30 35 16 19 1022.7 1022.6 0.0
27/10:00am 24.9 22.2 18.4 67 4.1 SSE 30 35 16 19 1022.4 1022.3 0.0
27/09:30am 24.4 22.0 18.3 69 3.8 SE 28 35 15 19 1022.4 1022.3 0.0
27/09:00am 24.0 21.8 18.6 72 3.4 SE 28 33 15 18 1022.2 1022.1 6.8
27/08:30am 23.6 22.7 19.1 76 2.9 SE 22 30 12 16 1022.0 1021.9 6.8
27/08:00am 22.8 22.3 19.2 80 2.3 SE 20 28 11 15 1022.0 1021.9 6.8
27/07:30am 21.9 22.3 18.9 83 1.9 SE 15 19 8 10 1021.6 1021.5 6.8
27/07:00am 21.6 21.5 18.8 84 1.8 ESE 17 19 9 10 1021.1 1021.0 6.8
27/06:30am 21.3 20.3 18.9 86 1.5 SE 22 28 12 15 1020.7 1020.6 6.8
27/06:00am 21.1 20.7 19.0 88 1.3 SE 19 24 10 13 1020.2 1020.1 6.8
27/05:30am 20.1 21.4 18.4 90 1.1 SE 9 15 5 8 1020.1 1020.0 6.8
27/05:00am 19.9 21.0 18.0 89 1.2 ESE 9 13 5 7 1020.0 1019.9 6.8
27/04:30am 20.0 20.3 18.0 88 1.2 E 13 19 7 10 1020.2 1020.1 6.8
27/04:00am 20.5 20.7 18.6 89 1.2 SE 15 32 8 17 1020.1 1020.0 6.8
27/03:30am 20.5 19.3 18.3 87 1.4 ESE 22 33 12 18 1020.3 1020.2 6.8
27/03:17am 20.5 20.5 19.0 91 0.9 S 17 44 9 24 1020.2 1020.1 6.6
27/03:00am 19.3 19.9 18.6 96 0.4 WNW 13 19 7 10 1020.1 1020.0 6.2
27/02:42am 19.1 20.0 18.4 96 0.4 WNW 11 15 6 8 1020.3 1020.2 6.2
27/02:31am 19.1 20.4 18.4 96 0.4 WSW 9 17 5 9 1020.2 1020.1 6.2
27/02:30am 19.1 20.4 18.4 96 0.4 WSW 9 17 5 9 1020.2 1020.1 6.2
27/02:12am 19.2 19.0 18.5 96 0.4 WNW 17 20 9 11 1020.3 1020.2 5.8
27/02:00am 19.0 19.5 18.3 96 0.4 NNW 13 24 7 13 1020.4 1020.3 4.0
27/01:30am 19.1 20.9 18.4 96 0.4 WNW 6 15 3 8 1020.6 1020.5 3.8
27/01:24am 19.2 20.2 18.7 97 0.3 NNW 11 20 6 11 1020.8 1020.7 3.8
27/01:23am 19.2 19.8 18.7 97 0.3 N 13 20 7 11 1020.9 1020.8 3.8
27/01:03am 19.1 20.4 18.4 96 0.4 WSW 9 13 5 7 1020.8 1020.7 2.4
27/01:00am 19.1 20.4 18.4 96 0.4 WSW 9 17 5 9 1020.9 1020.8 1.8
27/12:30am 18.8 19.2 18.1 96 0.4 WSW 13 17 7 9 1021.1 1021.0 1.0
27/12:00am 19.3 20.2 18.5 95 0.5 WSW 11 15 6 8 1021.2 1021.1 1.0
 
Date/Time
EDT
Temp
°C
App
Temp
°C
Dew
Point
°C
Rel
Hum
%
Delta-T
°C
Wind Press
QNH
hPa
Press
MSL
hPa
Rain since
9am
mm
Dir  Spd
km/h
Gust
km/h
Spd
kts
Gust
kts
26/11:30pm 20.0 20.3 18.8 93 0.8 SW 15 19 8 10 1021.5 1021.4 1.0
26/11:00pm 19.5 20.4 18.5 94 0.6 WSW 11 11 6 6 1021.7 1021.6 1.0
26/10:30pm 19.5 20.1 18.5 94 0.6 WSW 13 17 7 9 1021.5 1021.4 1.0
26/10:00pm 19.9 20.4 18.4 91 0.9 SW 13 19 7 10 1021.7 1021.6 1.0
26/09:30pm 20.3 19.5 17.9 86 1.5 SSW 19 24 10 13 1021.6 1021.5 0.2
26/09:00pm 21.5 20.7 17.1 76 2.7 S 17 22 9 12 1021.4 1021.3 0.0
26/08:30pm 21.7 20.0 17.3 76 2.7 SSE 22 33 12 18 1021.1 1021.0 0.0
26/08:00pm 21.6 21.0 16.6 73 3.0 S 15 20 8 11 1020.8 1020.7 0.0
26/07:30pm 21.8 20.0 16.1 70 3.4 S 20 30 11 16 1020.6 1020.5 0.0
26/07:00pm 22.7 19.5 16.3 67 3.9 S 28 35 15 19 1020.3 1020.2 0.0
26/06:30pm 23.1 19.6 16.6 67 4.0 SSE 30 37 16 20 1020.1 1020.0 0.0
26/06:00pm 24.0 20.2 15.8 60 4.9 S 30 37 16 20 1019.9 1019.8 0.0
26/05:30pm 24.5 20.2 15.4 57 5.5 S 32 41 17 22 1020.0 1019.9 0.0
26/05:00pm 24.7 20.3 15.1 55 5.7 S 32 39 17 21 1019.9 1019.8 0.0
26/04:30pm 24.7 21.0 15.1 55 5.8 S 28 41 15 22 1020.0 1019.9 0.0
26/04:00pm 24.8 22.3 17.0 62 4.8 S 26 35 14 19 1020.0 1019.9 0.0
26/03:30pm 22.4 21.7 18.2 77 2.6 SSE 19 30 10 16 1020.3 1020.2 0.0
26/03:00pm 23.0 19.8 16.3 66 4.1 S 28 39 15 21 1020.4 1020.3 0.0
26/02:32pm 23.2 19.1 16.0 64 4.4 SSE 32 50 17 27 1020.4 1020.3 0.0
26/02:30pm 24.9 21.4 16.6 60 5.1 S 30 41 16 22 1020.5 1020.4 0.0
26/02:00pm 24.3 21.0 16.0 60 5.0 SSE 28 35 15 19 1020.9 1020.8 0.0
26/01:30pm 23.0 23.0 18.1 74 3.1 SSW 15 24 8 13 1021.1 1021.0 0.0
26/01:00pm 21.3 21.5 17.7 80 2.2 SW 13 17 7 9 1021.3 1021.2 0.0
26/12:30pm 23.6 19.6 16.1 62 4.6 SSW 32 43 17 23 1021.3 1021.2 0.0
26/12:00pm 24.1 19.8 15.9 60 5.0 S 33 44 18 24 1021.2 1021.1 0.0
26/11:30am 24.4 22.3 17.1 63 4.5 S 24 32 13 17 1021.2 1021.1 0.0
26/11:00am 24.4 20.9 16.4 61 4.9 SSE 30 35 16 19 1021.1 1021.0 0.0
26/10:30am 24.5 21.8 16.5 61 4.9 SSE 26 32 14 17 1021.0 1020.9 0.0
26/10:00am 24.2 22.0 17.0 64 4.4 SSE 24 32 13 17 1020.8 1020.7 0.0
26/09:30am 23.4 20.7 16.7 66 4.1 SSE 26 32 14 17 1020.6 1020.5 0.0
26/09:00am 23.1 21.0 17.1 69 3.7 SSE 24 30 13 16 1020.3 1020.2 2.0
26/08:30am 22.8 20.8 17.3 71 3.4 SSE 24 32 13 17 1020.0 1019.9 2.0
26/08:00am 22.7 21.5 17.4 72 3.3 SE 20 28 11 15 1019.8 1019.7 2.0
26/07:30am 22.3 20.7 17.4 74 3.0 SE 22 28 12 15 1019.6 1019.5 2.0
26/07:00am 21.9 20.6 17.3 75 2.8 SE 20 26 11 14 1019.2 1019.1 2.0
26/06:30am 21.8 19.6 17.0 74 2.9 SE 24 30 13 16 1018.7 1018.6 2.0
26/06:00am 21.8 19.6 17.0 74 2.9 SE 24 28 13 15 1018.2 1018.1 2.0
26/05:30am 21.7 20.3 17.9 79 2.4 SE 22 30 12 16 1018.0 1017.9 2.0
26/05:00am 21.6 21.1 18.6 83 1.9 SE 19 26 10 14 1017.8 1017.7 2.0
26/04:30am 21.4 21.5 17.4 78 2.5 ESE 13 17 7 9 1017.6 1017.5 2.0
26/04:00am 21.7 21.2 17.7 78 2.5 ESE 17 22 9 12 1017.4 1017.3 2.0
26/03:30am 21.4 22.3 17.6 79 2.3 SSE 9 13 5 7 1017.9 1017.8 2.0
26/03:00am 21.6 22.2 17.6 78 2.5 SE 11 15 6 8 1018.0 1017.9 2.0
26/02:30am 21.4 21.3 17.8 80 2.2 SE 15 17 8 9 1018.2 1018.1 2.0
26/02:00am 21.4 21.7 18.0 81 2.1 SSE 13 15 7 8 1018.7 1018.6 2.0
26/01:30am 21.6 22.2 18.6 83 1.9 SE 13 17 7 9 1018.8 1018.7 2.0
26/01:00am 21.7 22.7 18.7 83 1.9 SE 11 15 6 8 1019.1 1019.0 2.0
26/12:30am 21.9 22.6 18.9 83 1.9 SE 13 17 7 9 1019.1 1019.0 2.0
26/12:00am 22.0 21.6 18.8 82 2.0 SE 19 22 10 12 1019.0 1018.9 2.0
 
Date/Time
EDT
Temp
°C
App
Temp
°C
Dew
Point
°C
Rel
Hum
%
Delta-T
°C
Wind Press
QNH
hPa
Press
MSL
hPa
Rain since
9am
mm
Dir  Spd
km/h
Gust
km/h
Spd
kts
Gust
kts
25/11:30pm 22.1 21.6 18.7 81 2.1 SE 19 26 10 14 1018.7 1018.6 2.0
25/11:00pm 21.9 21.9 18.9 83 1.9 SE 17 22 9 12 1018.8 1018.7 2.0
25/10:30pm 22.0 21.8 18.6 81 2.1 ESE 17 22 9 12 1018.9 1018.8 2.0
25/10:00pm 21.9 22.8 19.3 85 1.6 ESE 13 17 7 9 1019.1 1019.0 2.0
25/09:30pm 21.2 23.4 19.7 91 1.0 S 7 11 4 6 1018.9 1018.8 2.0
25/09:00pm 21.0 21.7 19.7 92 0.8 E 15 20 8 11 1018.7 1018.6 2.0

Other Formats:

Comma delimited format used in spreadsheet applications
http://www.bom.gov.au/fwo/IDN60801/IDN60801.94776.axf

JavaScript Object Notation format (JSON) in row-major order
http://www.bom.gov.au/fwo/IDN60801/IDN60801.94776.json